Time;durP1;ratioP1;P1;durP2;ratioP2;P2;SDS_P1;SDS_P2;PMS_P1;PMS_P2;Temp;Humidity;BMP_temperature;BMP_pressure;BME280_temperature;BME280_humidity;BME280_pressure;Samples;Min_cycle;Max_cycle;Signal;HPM_P1;HPM_P2
2023/06/24 00:01:38;;;;;;;16.00;14.30;;;;;;;25.00;56.81;100202.41;105145;1260;59647;-58
2023/06/24 00:04:06;;;;;;;17.30;14.40;;;;;;;25.02;56.73;100203.34;105461;1254;64184;-57
2023/06/24 00:06:34;;;;;;;15.20;12.80;;;;;;;25.01;56.38;100204.40;105353;1254;61810;-59
2023/06/24 00:09:02;;;;;;;14.50;12.20;;;;;;;24.98;56.46;100199.50;106241;1259;63752;-57
2023/06/24 00:11:30;;;;;;;16.00;12.60;;;;;;;24.95;56.50;100197.75;105415;1254;59784;-57
2023/06/24 00:13:58;;;;;;;16.40;14.70;;;;;;;24.91;56.63;100198.37;105364;1254;59656;-56
2023/06/24 00:16:28;;;;;;;19.70;14.10;;;;;;;24.82;56.58;100202.05;105250;1259;64150;-58
2023/06/24 00:19:00;;;;;;;17.10;15.20;;;;;;;24.75;56.34;100206.17;105208;1259;61378;-57
2023/06/24 00:21:31;;;;;;;15.70;13.20;;;;;;;24.70;56.40;100202.41;105440;1254;62610;-57
2023/06/24 00:31:18;;;;;;;15.10;13.50;;;;;;;24.67;55.85;100196.23;104112;1288;604900;-94
2023/06/24 00:34:02;;;;;;;16.20;13.90;;;;;;;24.91;54.93;100197.41;106205;1267;59375;-94
2023/06/24 00:36:50;;;;;;;14.90;13.30;;;;;;;24.94;54.62;100193.08;106342;1267;59280;-94
2023/06/24 00:39:39;;;;;;;14.50;12.50;;;;;;;25.00;54.98;100194.48;103933;1272;63456;-54
2023/06/24 00:42:06;;;;;;;14.30;12.30;;;;;;;25.06;55.12;100197.10;104431;1272;61498;-53
2023/06/24 00:44:33;;;;;;;15.60;14.00;;;;;;;24.99;54.83;100195.52;104229;1267;215159;-53
2023/06/24 00:47:01;;;;;;;16.50;14.20;;;;;;;24.98;54.72;100196.34;104411;1268;59323;-53
2023/06/24 00:49:28;;;;;;;15.30;13.30;;;;;;;24.91;54.61;100191.61;104124;1267;59348;-53
2023/06/24 00:51:56;;;;;;;14.90;12.60;;;;;;;24.83;54.15;100194.70;104741;1267;62794;-54
2023/06/24 00:54:30;;;;;;;15.40;13.00;;;;;;;24.79;53.84;100192.57;104862;1268;61666;-52
2023/06/24 00:57:00;;;;;;;15.50;13.90;;;;;;;24.71;54.13;100187.91;104396;1268;64053;-53
2023/06/24 00:59:29;;;;;;;16.70;13.30;;;;;;;24.65;54.28;100184.78;104256;1271;60214;-53
2023/06/24 01:01:56;;;;;;;16.40;13.60;;;;;;;24.65;54.42;100173.35;104382;1270;59715;-53
2023/06/24 01:04:24;;;;;;;14.90;12.90;;;;;;;24.66;54.53;100165.98;104517;1270;64308;-53
2023/06/24 01:06:51;;;;;;;15.10;13.60;;;;;;;24.66;54.50;100160.22;104581;1267;61596;-54
2023/06/24 01:09:18;;;;;;;15.70;13.80;;;;;;;24.66;54.57;100155.63;103818;1270;62494;-53
2023/06/24 01:11:45;;;;;;;14.70;13.20;;;;;;;24.64;54.71;100159.56;104226;1270;61548;-53
2023/06/24 01:14:12;;;;;;;17.10;15.20;;;;;;;24.62;54.91;100162.41;103975;1267;59702;-54
2023/06/24 01:16:59;;;;;;;16.70;13.30;;;;;;;24.58;55.22;100165.34;103967;1267;64317;-59
2023/06/24 01:20:00;;;;;;;16.10;13.80;;;;;;;24.58;55.49;100167.30;105689;1267;61619;-52
2023/06/24 01:22:27;;;;;;;18.10;13.90;;;;;;;24.65;55.68;100168.84;104588;1267;64162;-53
2023/06/24 01:25:06;;;;;;;14.90;13.40;;;;;;;24.68;55.97;100170.44;103943;1270;59699;-54
2023/06/24 01:28:09;;;;;;;17.30;13.70;;;;;;;24.67;56.05;100172.46;103863;1273;60177;-55
2023/06/24 01:31:06;;;;;;;15.10;13.00;;;;;;;24.69;56.02;100171.96;104283;1273;64494;-57
2023/06/24 01:33:39;;;;;;;15.50;13.90;;;;;;;24.71;56.24;100175.09;104048;1267;61399;-53
2023/06/24 01:36:06;;;;;;;16.90;14.50;;;;;;;24.70;56.30;100171.99;104079;1270;62835;-53
2023/06/24 01:38:36;;;;;;;15.60;13.50;;;;;;;24.69;56.27;100175.02;104301;1268;59618;-53
2023/06/24 01:41:03;;;;;;;16.70;13.30;;;;;;;24.69;55.96;100175.89;104038;1268;59861;-53
2023/06/24 01:43:31;;;;;;;17.20;14.00;;;;;;;24.69;55.85;100179.12;104143;1271;64139;-55
2023/06/24 01:45:57;;;;;;;16.40;13.30;;;;;;;24.67;55.78;100186.87;103957;1267;61798;-54
2023/06/24 01:48:27;;;;;;;16.70;14.80;;;;;;;24.66;55.93;100188.83;104603;1268;63981;-55
2023/06/24 01:50:54;;;;;;;17.10;15.30;;;;;;;24.63;56.02;100189.71;103869;1273;59681;-53
2023/06/24 01:53:21;;;;;;;16.20;14.10;;;;;;;24.60;56.01;100190.53;104134;1267;61015;-51
2023/06/24 01:55:49;;;;;;;18.90;14.80;;;;;;;24.59;56.34;100191.78;104654;1267;63236;-54
2023/06/24 01:58:17;;;;;;;17.80;14.80;;;;;;;24.58;56.68;100193.70;104482;1267;61530;-53
2023/06/24 02:00:44;;;;;;;16.80;14.90;;;;;;;24.58;56.77;100194.55;104020;1269;63938;-57
2023/06/24 02:03:11;;;;;;;17.30;15.40;;;;;;;24.61;56.64;100199.50;104139;1267;60252;-54
2023/06/24 02:05:40;;;;;;;17.60;15.70;;;;;;;24.63;56.54;100203.66;103901;1268;59799;-56
2023/06/24 02:08:08;;;;;;;19.20;17.00;;;;;;;24.65;56.70;100211.39;104110;1268;64418;-55
2023/06/24 02:10:38;;;;;;;23.40;17.50;;;;;;;24.63;56.87;100212.94;104664;1268;61749;-56
2023/06/24 02:13:05;;;;;;;19.80;17.00;;;;;;;24.62;56.99;100212.70;104159;1268;64060;-55
2023/06/24 02:15:32;;;;;;;18.70;16.30;;;;;;;24.61;57.28;100210.52;104229;1267;59674;-56
2023/06/24 02:17:59;;;;;;;17.80;15.80;;;;;;;24.64;57.20;100203.75;103987;1267;59585;-56
2023/06/24 02:20:26;;;;;;;16.80;15.00;;;;;;;24.71;57.28;100204.84;104536;1267;64440;-57
2023/06/24 02:22:54;;;;;;;16.30;14.60;;;;;;;24.75;57.12;100207.62;104324;1272;60293;-57
2023/06/24 02:25:22;;;;;;;18.70;16.30;;;;;;;24.76;57.18;100213.73;104036;1268;63882;-53
2023/06/24 02:27:50;;;;;;;19.50;16.40;;;;;;;24.79;57.01;100217.38;103893;1268;59844;-53
2023/06/24 02:30:17;;;;;;;20.80;16.60;;;;;;;24.76;56.74;100216.67;103815;1267;59802;-54
2023/06/24 02:32:44;;;;;;;20.00;17.10;;;;;;;24.70;56.85;100217.27;103936;1273;64524;-54
2023/06/24 02:35:10;;;;;;;19.80;16.50;;;;;;;24.65;57.09;100217.14;104088;1267;62489;-54
2023/06/24 02:37:38;;;;;;;22.60;18.00;;;;;;;24.58;57.18;100220.59;104834;1267;63728;-54
2023/06/24 02:40:07;;;;;;;19.60;16.20;;;;;;;24.54;57.48;100221.39;104434;1270;59810;-56
2023/06/24 02:42:34;;;;;;;20.60;15.70;;;;;;;24.58;57.57;100222.41;104719;1267;60938;-55
2023/06/24 02:45:01;;;;;;;17.90;15.90;;;;;;;24.68;57.36;100224.98;104305;1270;64244;-53
2023/06/24 02:47:28;;;;;;;18.60;16.20;;;;;;;24.74;57.35;100229.93;103984;1269;61755;-55
2023/06/24 02:49:57;;;;;;;25.10;17.10;;;;;;;24.75;57.31;100232.34;103924;1268;63940;-54
2023/06/24 02:52:28;;;;;;;18.40;15.70;;;;;;;24.75;57.49;100230.77;104207;1268;60020;-54
2023/06/24 02:54:57;;;;;;;18.80;14.70;;;;;;;24.75;57.57;100231.80;104043;1273;59790;-54
2023/06/24 02:57:29;;;;;;;19.40;15.70;;;;;;;24.77;57.51;100230.23;104705;1272;64372;-54
2023/06/24 03:00:33;;;;;;;17.30;13.50;;;;;;;24.77;57.51;100230.41;103871;1267;61682;-54
2023/06/24 03:03:09;;;;;;;16.60;14.10;;;;;;;24.75;57.61;100224.59;104064;1272;62529;-54
2023/06/24 03:05:45;;;;;;;16.40;13.60;;;;;;;24.76;57.51;100222.39;104080;1267;59702;-56
2023/06/24 03:08:12;;;;;;;16.20;13.40;;;;;;;24.78;57.54;100225.80;103989;1267;59790;-55
2023/06/24 03:10:42;;;;;;;16.60;12.70;;;;;;;24.78;57.53;100231.02;103940;1273;65252;-55
2023/06/24 03:13:12;;;;;;;15.60;13.20;;;;;;;24.75;57.79;100236.36;104442;1267;61416;-53
2023/06/24 03:15:45;;;;;;;15.10;13.40;;;;;;;24.73;57.88;100235.16;104232;1268;64551;-54
2023/06/24 03:18:12;;;;;;;15.90;14.10;;;;;;;24.72;58.03;100232.23;103909;1267;59847;-53
2023/06/24 03:20:39;;;;;;;15.80;12.20;;;;;;;24.73;58.07;100231.07;104028;1268;61237;-54
2023/06/24 03:23:11;;;;;;;15.40;12.30;;;;;;;24.76;57.82;100227.64;104205;1266;62947;-55
2023/06/24 03:25:39;;;;;;;14.00;12.40;;;;;;;24.82;57.71;100227.42;103955;1268;61532;-52
2023/06/24 03:28:09;;;;;;;15.60;12.40;;;;;;;24.86;57.69;100230.58;104154;1271;63905;-55
2023/06/24 03:30:40;;;;;;;15.50;12.30;;;;;;;24.86;57.73;100231.37;104065;1274;59585;-52
2023/06/24 03:33:07;;;;;;;16.00;12.30;;;;;;;24.85;57.75;100235.06;104231;1268;59579;-55
2023/06/24 03:35:34;;;;;;;15.60;12.80;;;;;;;24.84;57.53;100232.66;104165;1273;64245;-56
2023/06/24 03:38:03;;;;;;;17.80;12.60;;;;;;;24.83;57.73;100230.57;104159;1272;62044;-53
2023/06/24 03:40:31;;;;;;;19.40;11.80;;;;;;;24.84;57.69;100230.02;104550;1267;64489;-54
2023/06/24 03:42:58;;;;;;;15.40;11.70;;;;;;;24.87;57.64;100222.59;104159;1267;59685;-55
2023/06/24 03:45:25;;;;;;;14.00;12.50;;;;;;;24.88;57.72;100220.80;104055;1267;59690;-54
2023/06/24 03:47:52;;;;;;;14.20;11.70;;;;;;;24.91;57.69;100226.27;104317;1268;64165;-54
2023/06/24 03:50:18;;;;;;;14.60;12.30;;;;;;;24.91;57.70;100229.33;104118;1268;61561;-53
2023/06/24 03:52:46;;;;;;;16.20;12.10;;;;;;;24.87;57.87;100230.98;104240;1268;64489;-56
2023/06/24 03:55:13;;;;;;;17.70;12.10;;;;;;;24.82;58.06;100229.12;104505;1267;59785;-56
2023/06/24 03:57:41;;;;;;;15.10;11.10;;;;;;;24.80;58.11;100231.67;104143;1267;59815;-55
2023/06/24 04:00:20;;;;;;;14.20;11.30;;;;;;;24.78;58.37;100227.91;104035;1268;64282;-56
2023/06/24 04:02:47;;;;;;;15.80;11.10;;;;;;;24.82;58.37;100219.96;104821;1268;63324;-54
2023/06/24 04:05:14;;;;;;;17.00;10.60;;;;;;;24.88;58.24;100220.41;104024;1268;63927;-54
2023/06/24 04:07:46;;;;;;;13.70;9.90;;;;;;;24.91;58.19;100231.69;104780;1268;59589;-53
2023/06/24 04:10:14;;;;;;;14.10;11.40;;;;;;;24.93;58.26;100241.66;104155;1267;59778;-53
2023/06/24 04:12:45;;;;;;;12.70;11.40;;;;;;;24.94;58.29;100246.05;104019;1271;64986;-54
2023/06/24 04:15:12;;;;;;;14.80;10.50;;;;;;;24.93;58.41;100246.46;103998;1273;69073;-49
2023/06/24 04:17:38;;;;;;;14.80;10.60;;;;;;;25.00;58.45;100252.77;104429;1272;64083;-55
2023/06/24 04:20:09;;;;;;;14.00;10.40;;;;;;;25.09;58.20;100249.41;104321;1268;60414;-55
2023/06/24 04:22:40;;;;;;;11.70;9.70;;;;;;;25.17;58.00;100250.78;108204;1267;57547;-54
2023/06/24 04:25:07;;;;;;;12.80;10.50;;;;;;;25.23;57.67;100248.58;106462;1268;65063;-54
2023/06/24 04:27:35;;;;;;;12.50;9.90;;;;;;;25.28;57.53;100245.45;103850;1273;61627;-53
2023/06/24 04:30:03;;;;;;;12.80;10.00;;;;;;;25.30;57.34;100250.80;104031;1268;65101;-54
2023/06/24 04:32:30;;;;;;;12.70;8.90;;;;;;;25.32;57.38;100255.55;104223;1267;59943;-55
2023/06/24 04:35:04;;;;;;;14.00;9.90;;;;;;;25.35;57.29;100254.65;104361;1268;59753;-53
2023/06/24 04:37:32;;;;;;;17.70;8.90;;;;;;;25.34;57.17;100248.13;104374;1273;64703;-53
2023/06/24 04:39:59;;;;;;;13.70;9.40;;;;;;;25.36;57.01;100241.92;104087;1268;62265;-50
2023/06/24 04:42:26;;;;;;;16.00;9.90;;;;;;;25.42;57.05;100241.23;103950;1268;66256;-53
2023/06/24 04:44:53;;;;;;;13.40;9.50;;;;;;;25.49;57.04;100234.02;104320;1268;60452;-54
2023/06/24 04:47:20;;;;;;;12.40;9.00;;;;;;;25.60;56.70;100233.03;104363;1268;60676;-54
2023/06/24 04:49:46;;;;;;;16.10;9.60;;;;;;;25.66;56.51;100234.24;104523;1271;65260;-54
2023/06/24 04:52:13;;;;;;;11.00;9.00;;;;;;;25.69;56.43;100235.65;103912;1272;60637;-53
2023/06/24 04:54:40;;;;;;;14.50;8.90;;;;;;;25.70;56.36;100237.79;108174;1267;64067;-53
2023/06/24 04:57:22;;;;;;;12.60;9.20;;;;;;;25.75;56.28;100238.57;108167;1267;60736;-53
2023/06/24 04:59:49;;;;;;;16.40;9.00;;;;;;;25.83;56.15;100243.15;108067;1267;58261;-54
2023/06/24 05:02:16;;;;;;;13.00;8.00;;;;;;;25.91;55.76;100239.64;108153;1267;58620;-54
2023/06/24 05:04:42;;;;;;;12.50;8.90;;;;;;;25.99;55.41;100235.34;106869;1267;61706;-53
2023/06/24 05:07:09;;;;;;;15.50;9.00;;;;;;;26.08;55.31;100232.39;104134;1273;63924;-55
2023/06/24 05:09:37;;;;;;;12.20;8.70;;;;;;;26.17;55.19;100224.10;104134;1268;60480;-55
2023/06/24 05:12:05;;;;;;;13.10;7.90;;;;;;;26.23;54.59;100219.08;104765;1268;60388;-55
2023/06/24 05:14:34;;;;;;;11.70;8.70;;;;;;;26.28;54.53;100215.55;104330;1271;65018;-54
2023/06/24 05:17:01;;;;;;;11.70;8.30;;;;;;;26.37;54.59;100222.02;104176;1268;61433;-54
2023/06/24 05:19:28;;;;;;;13.40;9.00;;;;;;;26.42;54.44;100221.93;104492;1268;63833;-53
2023/06/24 05:21:55;;;;;;;13.30;8.20;;;;;;;26.45;54.27;100220.44;104106;1268;60535;-53
2023/06/24 05:24:22;;;;;;;13.80;7.70;;;;;;;26.48;54.01;100219.86;104330;1268;60532;-54
2023/06/24 05:26:50;;;;;;;12.00;7.90;;;;;;;26.48;53.92;100218.61;104296;1273;65052;-54
2023/06/24 05:29:17;;;;;;;14.10;7.50;;;;;;;26.51;53.75;100220.85;104142;1268;61543;-54
2023/06/24 05:31:44;;;;;;;11.00;7.90;;;;;;;26.55;53.28;100224.39;104639;1268;63898;-54
2023/06/24 05:34:11;;;;;;;11.00;7.60;;;;;;;26.55;53.23;100225.15;104274;1268;60486;-54
2023/06/24 05:36:38;;;;;;;12.00;8.20;;;;;;;26.57;53.32;100224.11;104093;1268;60591;-54
2023/06/24 05:39:07;;;;;;;10.80;7.80;;;;;;;26.61;53.27;100226.88;104291;1273;66032;-55
2023/06/24 05:41:35;;;;;;;11.10;7.50;;;;;;;26.66;53.45;100232.62;104122;1268;61515;-55
2023/06/24 05:44:07;;;;;;;13.10;6.80;;;;;;;26.70;53.27;100235.27;104245;1274;64807;-56
2023/06/24 05:46:34;;;;;;;12.90;7.00;;;;;;;26.71;52.83;100235.33;104157;1268;60868;-55
2023/06/24 05:49:01;;;;;;;11.60;7.20;;;;;;;26.69;52.96;100236.22;104480;1268;60588;-54
2023/06/24 05:51:28;;;;;;;10.70;7.60;;;;;;;26.70;53.20;100235.42;104573;1268;65030;-54
2023/06/24 05:53:54;;;;;;;12.20;7.40;;;;;;;26.72;53.14;100236.23;104447;1268;61483;-54
2023/06/24 05:56:22;;;;;;;10.10;6.40;;;;;;;26.77;53.20;100237.00;104127;1273;63868;-56
2023/06/24 05:58:49;;;;;;;9.50;6.20;;;;;;;26.85;52.92;100239.19;104134;1267;60475;-54
2023/06/24 06:01:16;;;;;;;11.90;6.50;;;;;;;26.91;52.66;100237.10;104129;1268;60474;-55
2023/06/24 06:03:43;;;;;;;11.30;6.20;;;;;;;26.94;52.66;100235.55;104518;1271;64984;-54
2023/06/24 06:06:10;;;;;;;11.50;6.60;;;;;;;26.99;52.34;100231.45;104397;1268;62034;-54
2023/06/24 06:08:38;;;;;;;10.50;6.00;;;;;;;27.01;52.26;100230.44;104135;1268;63953;-54
2023/06/24 06:11:04;;;;;;;10.30;6.00;;;;;;;27.02;52.34;100228.52;104274;1268;61656;-54
2023/06/24 06:13:31;;;;;;;11.20;6.00;;;;;;;27.03;51.97;100225.67;104190;1268;60510;-54
2023/06/24 06:15:58;;;;;;;8.50;6.10;;;;;;;27.07;51.82;100225.11;104503;1272;64991;-55
2023/06/24 06:18:25;;;;;;;11.50;5.50;;;;;;;27.13;51.76;100223.45;104366;1269;63329;-54
2023/06/24 06:20:52;;;;;;;9.10;5.70;;;;;;;27.21;51.76;100224.42;104113;1268;64099;-54
2023/06/24 06:23:19;;;;;;;12.60;6.30;;;;;;;27.30;51.80;100222.16;104155;1268;60504;-53
2023/06/24 06:25:45;;;;;;;9.80;5.30;;;;;;;27.38;51.37;100224.44;104594;1268;60549;-53
2023/06/24 06:28:15;;;;;;;9.30;5.80;;;;;;;27.42;51.27;100221.34;104188;1268;65195;-52
2023/06/24 06:30:42;;;;;;;11.90;5.40;;;;;;;27.46;51.46;100224.17;104071;1268;61617;-55
2023/06/24 06:33:08;;;;;;;9.50;5.70;;;;;;;27.49;51.41;100222.35;104219;1274;64022;-53
2023/06/24 06:35:36;;;;;;;11.20;5.30;;;;;;;27.49;51.24;100224.99;104050;1273;60481;-55
2023/06/24 06:38:04;;;;;;;9.00;5.40;;;;;;;27.50;51.02;100223.77;104337;1268;60586;-55
2023/06/24 06:40:32;;;;;;;16.90;6.10;;;;;;;27.53;50.87;100221.13;104182;1272;64005;-53
2023/06/24 06:42:58;;;;;;;14.50;7.00;;;;;;;27.56;50.94;100217.52;104364;1268;61722;-54
2023/06/24 06:45:25;;;;;;;8.90;4.90;;;;;;;27.61;50.83;100210.86;104001;1269;64199;-53
2023/06/24 06:47:52;;;;;;;10.50;5.50;;;;;;;27.69;50.38;100213.13;104072;1268;60551;-54
2023/06/24 06:50:19;;;;;;;9.10;5.80;;;;;;;27.72;50.12;100213.25;104530;1268;60949;-54
2023/06/24 06:52:46;;;;;;;10.00;4.90;;;;;;;27.74;50.16;100215.13;104488;1273;65077;-53
2023/06/24 06:55:13;;;;;;;12.40;6.30;;;;;;;27.77;50.02;100213.89;104243;1268;61737;-54
2023/06/24 06:57:40;;;;;;;11.20;4.70;;;;;;;27.85;49.91;100213.98;103970;1268;64018;-55
2023/06/24 07:00:08;;;;;;;9.00;5.40;;;;;;;27.94;49.82;100213.52;104130;1273;60490;-54
2023/06/24 07:02:35;;;;;;;9.10;4.90;;;;;;;28.01;49.90;100213.06;104238;1273;60404;-55
2023/06/24 07:05:02;;;;;;;11.70;4.60;;;;;;;28.07;49.63;100212.58;104187;1274;64920;-57
2023/06/24 07:07:29;;;;;;;12.50;5.40;;;;;;;28.08;49.17;100220.32;104176;1268;61700;-54
2023/06/24 07:09:56;;;;;;;10.70;5.10;;;;;;;28.06;49.17;100221.25;104261;1273;62599;-55
2023/06/24 07:12:23;;;;;;;10.30;4.90;;;;;;;28.01;49.39;100223.71;104580;1268;60435;-56
2023/06/24 07:14:50;;;;;;;10.90;6.10;;;;;;;27.96;49.26;100222.15;104407;1267;60485;-54
2023/06/24 07:17:17;;;;;;;12.80;5.20;;;;;;;27.95;49.31;100223.65;104119;1272;64944;-55
2023/06/24 07:19:44;;;;;;;12.90;5.50;;;;;;;27.95;49.47;100221.72;104692;1268;61658;-55
2023/06/24 07:22:11;;;;;;;10.60;5.90;;;;;;;27.97;49.54;100222.35;104391;1270;60525;-53
2023/06/24 07:24:38;;;;;;;10.30;4.90;;;;;;;27.97;49.64;100219.77;104655;1267;60570;-54
2023/06/24 07:27:05;;;;;;;11.50;4.90;;;;;;;27.97;49.65;100219.86;104357;1267;60588;-54
2023/06/24 07:29:32;;;;;;;9.50;5.00;;;;;;;27.97;49.69;100222.08;104292;1268;64019;-54
2023/06/24 07:31:59;;;;;;;8.70;4.70;;;;;;;27.96;49.33;100222.77;104237;1268;70165;-52
2023/06/24 07:34:25;;;;;;;11.70;4.90;;;;;;;27.92;48.91;100223.20;104243;1271;64052;-53
2023/06/24 07:36:52;;;;;;;11.00;5.10;;;;;;;27.88;48.94;100221.98;104378;1270;61466;-54
2023/06/24 07:39:19;;;;;;;8.90;4.70;;;;;;;27.87;48.94;100225.64;104243;1268;60387;-55
2023/06/24 07:41:46;;;;;;;9.60;4.90;;;;;;;27.89;49.11;100234.14;104103;1270;65093;-54
2023/06/24 07:44:13;;;;;;;9.40;5.30;;;;;;;27.88;49.41;100239.45;104338;1267;61616;-53
2023/06/24 07:46:40;;;;;;;9.90;5.00;;;;;;;27.93;49.58;100240.52;104172;1270;65005;-53
2023/06/24 07:49:07;;;;;;;13.10;5.00;;;;;;;28.01;49.67;100240.37;104138;1270;60607;-54
2023/06/24 07:51:35;;;;;;;10.40;4.80;;;;;;;28.10;49.75;100239.50;104449;1267;60522;-54
2023/06/24 07:54:01;;;;;;;8.70;4.70;;;;;;;28.21;49.63;100241.27;104183;1271;65092;-55
2023/06/24 07:56:28;;;;;;;10.70;4.80;;;;;;;28.26;49.22;100245.16;104177;1270;61538;-54
2023/06/24 07:58:55;;;;;;;9.20;5.00;;;;;;;28.26;49.71;100245.21;104124;1271;64069;-55
2023/06/24 08:01:22;;;;;;;11.90;5.70;;;;;;;28.27;49.70;100244.48;104147;1270;61231;-54
2023/06/24 08:03:48;;;;;;;12.20;5.70;;;;;;;28.29;49.39;100248.98;104247;1270;60795;-54
2023/06/24 08:06:15;;;;;;;8.40;4.70;;;;;;;28.28;49.57;100256.48;104141;1270;68275;-54
2023/06/24 08:08:42;;;;;;;14.20;5.90;;;;;;;28.26;49.73;100262.90;104387;1271;61758;-54
2023/06/24 08:11:09;;;;;;;9.50;5.00;;;;;;;28.23;49.81;100260.14;104140;1269;64193;-54
2023/06/24 08:13:36;;;;;;;11.80;5.20;;;;;;;28.20;49.95;100260.78;104474;1268;60426;-54
2023/06/24 08:16:02;;;;;;;12.50;5.30;;;;;;;28.17;50.10;100264.89;104290;1270;60550;-54
2023/06/24 08:18:29;;;;;;;10.30;5.20;;;;;;;28.14;50.39;100266.95;104201;1268;64058;-55
2023/06/24 08:20:56;;;;;;;16.20;6.30;;;;;;;28.12;50.34;100268.10;105108;1267;61559;-55
2023/06/24 08:23:23;;;;;;;11.00;5.30;;;;;;;28.04;50.53;100266.39;104285;1270;64951;-56
2023/06/24 08:25:50;;;;;;;10.10;5.90;;;;;;;28.01;50.55;100267.13;104598;1266;60573;-55
2023/06/24 08:28:22;;;;;;;9.50;5.50;;;;;;;28.06;50.78;100266.00;104608;1268;60686;-55
2023/06/24 08:30:49;;;;;;;8.00;5.20;;;;;;;28.16;50.49;100265.86;104143;1271;65046;-54
2023/06/24 08:33:16;;;;;;;14.00;5.00;;;;;;;28.27;50.01;100260.16;104324;1267;61829;-54
2023/06/24 08:35:43;;;;;;;8.80;5.50;;;;;;;28.41;49.98;100255.86;104603;1271;63875;-54
2023/06/24 08:38:09;;;;;;;8.90;5.90;;;;;;;28.57;49.68;100256.08;104055;1268;60583;-55
2023/06/24 08:40:39;;;;;;;10.50;5.50;;;;;;;28.71;49.52;100256.74;104211;1271;60600;-53
2023/06/24 08:43:06;;;;;;;10.10;5.90;;;;;;;28.83;49.12;100252.78;104496;1270;65105;-53
2023/06/24 08:45:33;;;;;;;12.80;6.50;;;;;;;28.93;48.80;100250.05;104078;1268;64920;-53
2023/06/24 08:48:02;;;;;;;11.00;6.60;;;;;;;29.05;48.66;100258.30;104092;1268;64435;-54
2023/06/24 08:50:33;;;;;;;9.30;5.90;;;;;;;29.10;48.35;100262.71;104107;1272;60559;-53
2023/06/24 08:52:59;;;;;;;8.70;5.60;;;;;;;29.10;48.64;100262.70;104482;1268;60497;-55
2023/06/24 08:55:26;;;;;;;12.40;5.60;;;;;;;29.14;48.81;100257.29;104172;1268;66119;-54
2023/06/24 08:57:53;;;;;;;14.80;6.40;;;;;;;29.17;48.92;100257.74;104126;1272;62237;-54
2023/06/24 09:00:20;;;;;;;11.40;6.10;;;;;;;29.18;48.63;100262.48;104912;1269;65150;-55
2023/06/24 09:02:46;;;;;;;9.50;5.90;;;;;;;29.18;48.41;100266.59;104275;1267;61519;-55
2023/06/24 09:05:13;;;;;;;9.80;6.10;;;;;;;29.16;48.54;100267.68;104119;1272;62734;-53
2023/06/24 09:07:40;;;;;;;11.50;5.90;;;;;;;29.15;48.70;100269.39;104141;1270;65061;-50
2023/06/24 09:10:07;;;;;;;10.60;6.10;;;;;;;29.14;48.56;100269.54;104188;1271;60499;-55
2023/06/24 09:12:34;;;;;;;8.80;5.80;;;;;;;29.12;48.33;100271.89;104181;1270;63788;-57
2023/06/24 09:15:01;;;;;;;10.30;6.20;;;;;;;29.11;48.38;100274.10;104479;1270;61638;-56
2023/06/24 09:17:28;;;;;;;12.00;6.70;;;;;;;29.08;48.61;100271.57;104280;1273;60516;-54
2023/06/24 09:20:05;;;;;;;10.20;5.90;;;;;;;29.06;48.73;100274.14;104261;1270;65356;-57
2023/06/24 09:22:32;;;;;;;11.70;7.20;;;;;;;29.07;48.90;100272.91;104229;1271;68874;-52
2023/06/24 09:25:00;;;;;;;9.10;6.20;;;;;;;29.08;48.79;100266.80;104081;1270;63903;-52
2023/06/24 09:27:31;;;;;;;10.10;5.50;;;;;;;29.08;48.95;100265.73;104204;1271;60576;-49
2023/06/24 09:29:58;;;;;;;10.60;6.10;;;;;;;29.07;49.03;100265.70;104213;1267;60515;-51
2023/06/24 09:32:31;;;;;;;12.70;6.30;;;;;;;29.04;48.72;100269.94;104214;1271;65084;-51
2023/06/24 09:34:58;;;;;;;9.30;5.80;;;;;;;29.01;49.03;100267.34;104528;1267;62531;-51
2023/06/24 09:37:31;;;;;;;10.70;6.20;;;;;;;29.00;48.88;100266.41;104320;1271;64089;-53
2023/06/24 09:39:57;;;;;;;10.00;6.20;;;;;;;29.00;49.06;100269.13;104500;1271;60508;-59
2023/06/24 09:42:24;;;;;;;13.40;6.80;;;;;;;28.99;48.96;100268.08;104706;1268;60503;-58
2023/06/24 09:44:55;;;;;;;10.10;6.10;;;;;;;28.97;49.22;100266.52;104287;1268;63775;-52
2023/06/24 09:47:25;;;;;;;12.40;6.60;;;;;;;28.95;49.17;100267.69;104930;1271;62093;-50
2023/06/24 09:49:52;;;;;;;11.40;6.50;;;;;;;28.93;49.42;100266.52;104276;1271;64157;-53
2023/06/24 09:52:19;;;;;;;13.10;6.40;;;;;;;28.92;49.50;100269.04;104253;1267;61045;-53
2023/06/24 09:54:47;;;;;;;8.60;6.40;;;;;;;28.88;49.53;100269.54;104139;1267;61175;-54
2023/06/24 09:57:13;;;;;;;9.60;6.40;;;;;;;28.84;49.52;100268.60;104244;1270;65128;-54
2023/06/24 09:59:40;;;;;;;10.10;6.90;;;;;;;28.80;49.57;100265.73;104548;1271;61496;-53
2023/06/24 10:02:07;;;;;;;10.10;6.50;;;;;;;28.79;49.74;100259.39;103955;1273;62511;-54
2023/06/24 10:04:35;;;;;;;8.40;5.70;;;;;;;28.81;49.76;100256.21;104129;1266;60433;-52
2023/06/24 10:07:02;;;;;;;13.90;6.90;;;;;;;28.83;49.74;100253.42;103991;1267;60543;-54
2023/06/24 10:09:29;;;;;;;10.00;7.10;;;;;;;28.85;49.85;100251.29;104117;1271;65114;-56
2023/06/24 10:11:56;;;;;;;11.70;7.10;;;;;;;28.87;49.78;100251.01;104413;1266;62206;-54
2023/06/24 10:14:23;;;;;;;8.20;6.00;;;;;;;28.91;49.62;100254.41;104128;1270;62923;-53
2023/06/24 10:16:50;;;;;;;11.30;6.70;;;;;;;28.91;49.50;100255.29;104133;1273;60537;-53
2023/06/24 10:19:23;;;;;;;11.60;7.10;;;;;;;28.88;49.74;100253.56;104350;1270;60391;-52
2023/06/24 10:22:10;;;;;;;11.50;6.00;;;;;;;28.89;49.94;100255.59;104110;1271;65041;-54
2023/06/24 10:24:39;;;;;;;13.00;6.90;;;;;;;28.90;50.21;100252.73;104185;1270;61528;-54
2023/06/24 10:27:16;;;;;;;13.90;6.30;;;;;;;28.90;50.41;100250.67;104266;1271;63731;-54
2023/06/24 10:29:45;;;;;;;13.80;7.00;;;;;;;28.90;50.15;100247.64;104252;1268;60554;-54
2023/06/24 10:32:11;;;;;;;11.30;6.60;;;;;;;28.86;49.80;100252.08;104461;1270;60580;-53
2023/06/24 10:34:40;;;;;;;11.20;6.40;;;;;;;28.82;49.01;100250.06;104456;1270;65124;-55
2023/06/24 10:37:07;;;;;;;12.00;6.50;;;;;;;28.79;49.03;100242.38;104295;1270;60953;-54
2023/06/24 10:39:38;;;;;;;12.10;6.80;;;;;;;28.82;49.34;100242.80;104316;1270;63863;-55
2023/06/24 10:42:43;;;;;;;9.60;6.70;;;;;;;28.89;49.16;100240.91;104185;1271;60462;-54
2023/06/24 10:45:10;;;;;;;11.60;6.80;;;;;;;28.97;48.98;100236.25;104088;1270;60619;-54
2023/06/24 10:47:42;;;;;;;10.00;6.80;;;;;;;29.02;48.73;100231.71;104495;1270;65047;-54
2023/06/24 10:50:11;;;;;;;11.90;6.60;;;;;;;29.09;48.62;100231.27;104536;1268;62060;-55
2023/06/24 10:52:40;;;;;;;11.70;6.90;;;;;;;29.23;48.55;100235.29;104622;1271;62797;-54
2023/06/24 10:55:07;;;;;;;9.80;6.30;;;;;;;29.44;48.29;100233.98;104463;1270;60387;-54
2023/06/24 10:57:34;;;;;;;12.10;6.80;;;;;;;29.65;47.60;100236.14;104206;1268;60583;-53
2023/06/24 11:00:01;;;;;;;11.60;6.50;;;;;;;29.79;46.82;100235.45;104055;1270;65356;-54
2023/06/24 11:02:28;;;;;;;10.40;7.40;;;;;;;29.88;46.73;100228.34;105382;1270;60505;-54
2023/06/24 11:04:57;;;;;;;10.00;7.20;;;;;;;30.00;46.26;100228.24;104232;1270;63894;-54
2023/06/24 11:07:25;;;;;;;12.60;7.80;;;;;;;30.11;45.62;100225.48;105023;1267;60989;-55
2023/06/24 11:09:56;;;;;;;13.40;6.70;;;;;;;30.22;44.88;100227.98;104468;1267;60429;-55
2023/06/24 11:12:24;;;;;;;11.30;7.00;;;;;;;30.32;44.11;100229.38;104229;1267;65352;-58
2023/06/24 11:14:51;;;;;;;9.90;6.80;;;;;;;30.41;43.40;100221.98;104218;1270;61891;-55
2023/06/24 11:17:19;;;;;;;9.00;6.50;;;;;;;30.46;43.12;100210.30;104144;1271;63707;-55
2023/06/24 11:19:46;;;;;;;13.10;6.90;;;;;;;30.51;43.47;100206.33;104294;1269;61449;-55
2023/06/24 11:22:13;;;;;;;15.80;7.30;;;;;;;30.61;43.45;100205.30;104217;1269;60458;-54